sensor_id;sensor_type;location;lat;lon;timestamp;P1;durP1;ratioP1;P2;durP2;ratioP2
59504;SDS011;45321;53.200;5.814;2024-03-29T00:00:43;7.30;;;1.55;;
59504;SDS011;45321;53.200;5.814;2024-03-29T00:03:12;4.25;;;1.38;;
59504;SDS011;45321;53.200;5.814;2024-03-29T00:05:38;5.50;;;1.05;;
59504;SDS011;45321;53.200;5.814;2024-03-29T00:08:03;7.50;;;1.05;;
59504;SDS011;45321;53.200;5.814;2024-03-29T00:10:29;5.72;;;1.27;;
59504;SDS011;45321;53.200;5.814;2024-03-29T00:12:56;4.28;;;0.88;;
59504;SDS011;45321;53.200;5.814;2024-03-29T00:15:21;5.05;;;1.10;;
59504;SDS011;45321;53.200;5.814;2024-03-29T00:17:47;5.13;;;1.48;;
59504;SDS011;45321;53.200;5.814;2024-03-29T00:20:13;6.72;;;1.73;;
59504;SDS011;45321;53.200;5.814;2024-03-29T00:22:39;6.53;;;1.00;;
59504;SDS011;45321;53.200;5.814;2024-03-29T00:25:04;5.47;;;1.10;;
59504;SDS011;45321;53.200;5.814;2024-03-29T00:27:30;5.85;;;0.85;;
59504;SDS011;45321;53.200;5.814;2024-03-29T00:29:57;8.52;;;1.08;;
59504;SDS011;45321;53.200;5.814;2024-03-29T00:32:23;6.57;;;1.85;;
59504;SDS011;45321;53.200;5.814;2024-03-29T00:34:50;7.55;;;1.33;;
59504;SDS011;45321;53.200;5.814;2024-03-29T00:37:17;5.15;;;0.93;;
59504;SDS011;45321;53.200;5.814;2024-03-29T00:39:43;5.90;;;1.13;;
59504;SDS011;45321;53.200;5.814;2024-03-29T00:42:09;6.80;;;1.10;;
59504;SDS011;45321;53.200;5.814;2024-03-29T00:44:37;5.28;;;1.00;;
59504;SDS011;45321;53.200;5.814;2024-03-29T00:47:04;5.80;;;1.10;;
59504;SDS011;45321;53.200;5.814;2024-03-29T00:49:30;3.30;;;1.02;;
59504;SDS011;45321;53.200;5.814;2024-03-29T00:51:56;4.78;;;1.17;;
59504;SDS011;45321;53.200;5.814;2024-03-29T00:54:21;9.00;;;1.73;;
59504;SDS011;45321;53.200;5.814;2024-03-29T00:56:49;7.65;;;1.20;;
59504;SDS011;45321;53.200;5.814;2024-03-29T00:59:15;15.63;;;5.88;;
59504;SDS011;45321;53.200;5.814;2024-03-29T01:01:41;5.75;;;1.75;;
59504;SDS011;45321;53.200;5.814;2024-03-29T01:04:07;7.40;;;1.17;;
59504;SDS011;45321;53.200;5.814;2024-03-29T01:06:32;6.93;;;1.30;;
59504;SDS011;45321;53.200;5.814;2024-03-29T01:08:59;5.88;;;1.23;;
59504;SDS011;45321;53.200;5.814;2024-03-29T01:11:25;7.32;;;1.30;;
59504;SDS011;45321;53.200;5.814;2024-03-29T01:13:51;4.82;;;1.20;;
59504;SDS011;45321;53.200;5.814;2024-03-29T01:16:17;7.57;;;1.58;;
59504;SDS011;45321;53.200;5.814;2024-03-29T01:18:44;7.30;;;1.58;;
59504;SDS011;45321;53.200;5.814;2024-03-29T01:21:09;5.78;;;1.15;;
59504;SDS011;45321;53.200;5.814;2024-03-29T01:23:44;5.68;;;1.00;;
59504;SDS011;45321;53.200;5.814;2024-03-29T01:26:10;9.18;;;1.55;;
59504;SDS011;45321;53.200;5.814;2024-03-29T01:28:39;9.88;;;1.70;;
59504;SDS011;45321;53.200;5.814;2024-03-29T01:31:05;5.90;;;1.08;;
59504;SDS011;45321;53.200;5.814;2024-03-29T01:33:31;4.05;;;1.10;;
59504;SDS011;45321;53.200;5.814;2024-03-29T01:36:03;5.05;;;1.10;;
59504;SDS011;45321;53.200;5.814;2024-03-29T01:38:29;7.30;;;1.55;;
59504;SDS011;45321;53.200;5.814;2024-03-29T01:40:55;7.68;;;1.00;;
59504;SDS011;45321;53.200;5.814;2024-03-29T01:43:21;7.20;;;1.55;;
59504;SDS011;45321;53.200;5.814;2024-03-29T01:45:47;5.55;;;1.50;;
59504;SDS011;45321;53.200;5.814;2024-03-29T01:48:14;4.72;;;1.25;;
59504;SDS011;45321;53.200;5.814;2024-03-29T01:50:42;6.30;;;1.20;;
59504;SDS011;45321;53.200;5.814;2024-03-29T01:53:09;5.28;;;1.02;;
59504;SDS011;45321;53.200;5.814;2024-03-29T01:55:35;5.78;;;0.88;;
59504;SDS011;45321;53.200;5.814;2024-03-29T01:58:01;4.45;;;1.00;;
59504;SDS011;45321;53.200;5.814;2024-03-29T02:00:27;4.65;;;1.20;;
59504;SDS011;45321;53.200;5.814;2024-03-29T02:02:54;5.47;;;1.25;;
59504;SDS011;45321;53.200;5.814;2024-03-29T02:05:20;6.70;;;1.20;;
59504;SDS011;45321;53.200;5.814;2024-03-29T02:07:46;7.85;;;1.77;;
59504;SDS011;45321;53.200;5.814;2024-03-29T02:10:13;3.97;;;1.13;;
59504;SDS011;45321;53.200;5.814;2024-03-29T02:12:40;3.25;;;1.10;;
59504;SDS011;45321;53.200;5.814;2024-03-29T02:15:06;3.85;;;0.88;;
59504;SDS011;45321;53.200;5.814;2024-03-29T02:17:32;6.68;;;1.40;;
59504;SDS011;45321;53.200;5.814;2024-03-29T02:19:58;4.10;;;0.80;;
59504;SDS011;45321;53.200;5.814;2024-03-29T02:22:24;5.32;;;1.10;;
59504;SDS011;45321;53.200;5.814;2024-03-29T02:24:52;6.30;;;1.20;;
59504;SDS011;45321;53.200;5.814;2024-03-29T02:27:20;5.60;;;1.25;;
59504;SDS011;45321;53.200;5.814;2024-03-29T02:29:46;5.50;;;1.08;;
59504;SDS011;45321;53.200;5.814;2024-03-29T02:32:12;6.53;;;1.40;;
59504;SDS011;45321;53.200;5.814;2024-03-29T02:34:38;9.75;;;1.17;;
59504;SDS011;45321;53.200;5.814;2024-03-29T02:37:03;5.82;;;1.42;;
59504;SDS011;45321;53.200;5.814;2024-03-29T02:39:30;3.80;;;1.00;;
59504;SDS011;45321;53.200;5.814;2024-03-29T02:41:55;5.75;;;1.02;;
59504;SDS011;45321;53.200;5.814;2024-03-29T02:44:21;3.10;;;1.00;;
59504;SDS011;45321;53.200;5.814;2024-03-29T02:46:47;5.30;;;1.13;;
59504;SDS011;45321;53.200;5.814;2024-03-29T02:49:12;4.30;;;1.02;;
59504;SDS011;45321;53.200;5.814;2024-03-29T02:51:38;7.10;;;0.98;;
59504;SDS011;45321;53.200;5.814;2024-03-29T02:54:04;5.07;;;1.20;;
59504;SDS011;45321;53.200;5.814;2024-03-29T02:56:29;6.22;;;1.20;;
59504;SDS011;45321;53.200;5.814;2024-03-29T02:58:55;7.18;;;1.05;;
59504;SDS011;45321;53.200;5.814;2024-03-29T03:01:21;6.80;;;1.40;;
59504;SDS011;45321;53.200;5.814;2024-03-29T03:03:47;8.48;;;1.40;;
59504;SDS011;45321;53.200;5.814;2024-03-29T03:06:12;7.47;;;1.33;;
59504;SDS011;45321;53.200;5.814;2024-03-29T03:08:38;6.22;;;1.45;;
59504;SDS011;45321;53.200;5.814;2024-03-29T03:11:22;5.63;;;1.20;;
59504;SDS011;45321;53.200;5.814;2024-03-29T03:13:48;5.32;;;1.10;;
59504;SDS011;45321;53.200;5.814;2024-03-29T03:16:13;6.60;;;1.10;;
59504;SDS011;45321;53.200;5.814;2024-03-29T03:18:39;7.43;;;1.10;;
59504;SDS011;45321;53.200;5.814;2024-03-29T03:21:05;5.38;;;1.00;;
59504;SDS011;45321;53.200;5.814;2024-03-29T03:23:31;3.55;;;0.90;;
59504;SDS011;45321;53.200;5.814;2024-03-29T03:26:01;4.70;;;1.02;;
59504;SDS011;45321;53.200;5.814;2024-03-29T03:28:30;5.22;;;0.98;;
59504;SDS011;45321;53.200;5.814;2024-03-29T03:30:56;7.53;;;1.50;;
59504;SDS011;45321;53.200;5.814;2024-03-29T03:33:22;4.80;;;1.75;;
59504;SDS011;45321;53.200;5.814;2024-03-29T03:35:48;7.20;;;1.27;;
59504;SDS011;45321;53.200;5.814;2024-03-29T03:38:14;9.23;;;1.50;;
59504;SDS011;45321;53.200;5.814;2024-03-29T03:40:41;6.75;;;0.98;;
59504;SDS011;45321;53.200;5.814;2024-03-29T03:43:07;8.38;;;1.85;;
59504;SDS011;45321;53.200;5.814;2024-03-29T03:45:37;7.10;;;1.90;;
59504;SDS011;45321;53.200;5.814;2024-03-29T03:48:04;6.53;;;1.23;;
59504;SDS011;45321;53.200;5.814;2024-03-29T03:50:31;4.35;;;0.98;;
59504;SDS011;45321;53.200;5.814;2024-03-29T03:52:57;6.13;;;1.10;;
59504;SDS011;45321;53.200;5.814;2024-03-29T03:55:23;5.03;;;1.30;;
59504;SDS011;45321;53.200;5.814;2024-03-29T03:57:49;7.68;;;1.17;;
59504;SDS011;45321;53.200;5.814;2024-03-29T04:00:15;4.60;;;1.08;;
59504;SDS011;45321;53.200;5.814;2024-03-29T04:02:42;5.70;;;1.13;;
59504;SDS011;45321;53.200;5.814;2024-03-29T04:05:18;4.43;;;0.80;;
59504;SDS011;45321;53.200;5.814;2024-03-29T04:07:45;6.88;;;0.85;;
59504;SDS011;45321;53.200;5.814;2024-03-29T04:10:11;6.40;;;1.13;;
59504;SDS011;45321;53.200;5.814;2024-03-29T04:12:37;7.13;;;1.45;;
59504;SDS011;45321;53.200;5.814;2024-03-29T04:15:03;5.25;;;1.00;;
59504;SDS011;45321;53.200;5.814;2024-03-29T04:17:30;4.90;;;1.33;;
59504;SDS011;45321;53.200;5.814;2024-03-29T04:19:56;6.82;;;1.17;;
59504;SDS011;45321;53.200;5.814;2024-03-29T04:22:22;6.40;;;1.65;;
59504;SDS011;45321;53.200;5.814;2024-03-29T04:24:48;9.85;;;1.70;;
59504;SDS011;45321;53.200;5.814;2024-03-29T04:27:14;4.10;;;1.00;;
59504;SDS011;45321;53.200;5.814;2024-03-29T04:29:40;7.85;;;1.40;;
59504;SDS011;45321;53.200;5.814;2024-03-29T04:32:06;3.92;;;0.80;;
59504;SDS011;45321;53.200;5.814;2024-03-29T04:34:31;7.15;;;1.30;;
59504;SDS011;45321;53.200;5.814;2024-03-29T04:36:58;8.70;;;1.67;;
59504;SDS011;45321;53.200;5.814;2024-03-29T04:39:24;3.80;;;1.08;;
59504;SDS011;45321;53.200;5.814;2024-03-29T04:41:50;6.13;;;1.13;;
59504;SDS011;45321;53.200;5.814;2024-03-29T04:44:26;8.32;;;1.20;;
59504;SDS011;45321;53.200;5.814;2024-03-29T04:46:53;4.70;;;1.23;;
59504;SDS011;45321;53.200;5.814;2024-03-29T04:49:19;6.25;;;1.10;;
59504;SDS011;45321;53.200;5.814;2024-03-29T04:51:48;7.05;;;0.95;;
59504;SDS011;45321;53.200;5.814;2024-03-29T04:54:17;5.88;;;1.10;;
59504;SDS011;45321;53.200;5.814;2024-03-29T04:56:43;5.47;;;0.82;;
59504;SDS011;45321;53.200;5.814;2024-03-29T04:59:08;6.97;;;1.45;;
59504;SDS011;45321;53.200;5.814;2024-03-29T05:01:38;6.68;;;1.50;;
59504;SDS011;45321;53.200;5.814;2024-03-29T05:04:04;5.68;;;1.40;;
59504;SDS011;45321;53.200;5.814;2024-03-29T05:06:31;9.35;;;1.73;;
59504;SDS011;45321;53.200;5.814;2024-03-29T05:08:56;5.88;;;0.90;;
59504;SDS011;45321;53.200;5.814;2024-03-29T05:11:22;5.13;;;1.00;;
59504;SDS011;45321;53.200;5.814;2024-03-29T05:13:48;10.32;;;1.52;;
59504;SDS011;45321;53.200;5.814;2024-03-29T05:16:13;9.10;;;1.17;;
59504;SDS011;45321;53.200;5.814;2024-03-29T05:18:40;4.57;;;1.10;;
59504;SDS011;45321;53.200;5.814;2024-03-29T05:21:05;4.50;;;1.30;;
59504;SDS011;45321;53.200;5.814;2024-03-29T05:23:31;4.38;;;1.00;;
59504;SDS011;45321;53.200;5.814;2024-03-29T05:25:57;7.53;;;1.00;;
59504;SDS011;45321;53.200;5.814;2024-03-29T05:28:22;4.07;;;1.00;;
59504;SDS011;45321;53.200;5.814;2024-03-29T05:30:48;4.03;;;1.10;;
59504;SDS011;45321;53.200;5.814;2024-03-29T05:33:14;3.85;;;1.20;;
59504;SDS011;45321;53.200;5.814;2024-03-29T05:35:40;4.85;;;1.20;;
59504;SDS011;45321;53.200;5.814;2024-03-29T05:38:06;6.32;;;1.00;;
59504;SDS011;45321;53.200;5.814;2024-03-29T05:40:35;5.00;;;0.93;;
59504;SDS011;45321;53.200;5.814;2024-03-29T05:43:02;5.18;;;1.27;;
59504;SDS011;45321;53.200;5.814;2024-03-29T05:45:29;5.60;;;1.13;;
59504;SDS011;45321;53.200;5.814;2024-03-29T05:47:56;4.93;;;0.90;;
59504;SDS011;45321;53.200;5.814;2024-03-29T05:50:23;4.20;;;0.80;;
59504;SDS011;45321;53.200;5.814;2024-03-29T05:52:49;2.90;;;0.80;;
59504;SDS011;45321;53.200;5.814;2024-03-29T05:55:18;5.10;;;0.98;;
59504;SDS011;45321;53.200;5.814;2024-03-29T05:57:44;4.18;;;1.30;;
59504;SDS011;45321;53.200;5.814;2024-03-29T06:00:11;4.05;;;0.98;;
59504;SDS011;45321;53.200;5.814;2024-03-29T06:02:41;4.47;;;0.93;;
59504;SDS011;45321;53.200;5.814;2024-03-29T06:05:09;5.00;;;0.85;;
59504;SDS011;45321;53.200;5.814;2024-03-29T06:07:35;3.45;;;0.80;;
59504;SDS011;45321;53.200;5.814;2024-03-29T06:10:01;3.63;;;0.77;;
59504;SDS011;45321;53.200;5.814;2024-03-29T06:12:29;3.88;;;1.05;;
59504;SDS011;45321;53.200;5.814;2024-03-29T06:14:59;6.25;;;0.93;;
59504;SDS011;45321;53.200;5.814;2024-03-29T06:17:44;5.68;;;1.08;;
59504;SDS011;45321;53.200;5.814;2024-03-29T06:20:11;4.38;;;0.90;;
59504;SDS011;45321;53.200;5.814;2024-03-29T06:22:37;3.58;;;0.80;;
59504;SDS011;45321;53.200;5.814;2024-03-29T06:25:02;4.78;;;0.70;;
59504;SDS011;45321;53.200;5.814;2024-03-29T06:27:35;6.57;;;1.05;;
59504;SDS011;45321;53.200;5.814;2024-03-29T06:30:02;3.17;;;0.75;;
59504;SDS011;45321;53.200;5.814;2024-03-29T06:32:29;3.00;;;0.85;;
59504;SDS011;45321;53.200;5.814;2024-03-29T06:34:55;1.35;;;0.73;;
59504;SDS011;45321;53.200;5.814;2024-03-29T06:37:21;1.75;;;0.70;;
59504;SDS011;45321;53.200;5.814;2024-03-29T06:39:50;2.30;;;0.63;;
59504;SDS011;45321;53.200;5.814;2024-03-29T06:42:16;3.20;;;0.90;;
59504;SDS011;45321;53.200;5.814;2024-03-29T06:44:42;2.35;;;0.80;;
59504;SDS011;45321;53.200;5.814;2024-03-29T06:47:08;3.55;;;1.10;;
59504;SDS011;45321;53.200;5.814;2024-03-29T06:49:34;2.85;;;0.50;;
59504;SDS011;45321;53.200;5.814;2024-03-29T06:52:00;3.47;;;0.95;;
59504;SDS011;45321;53.200;5.814;2024-03-29T06:54:27;4.10;;;1.10;;
59504;SDS011;45321;53.200;5.814;2024-03-29T06:56:53;3.03;;;0.80;;
59504;SDS011;45321;53.200;5.814;2024-03-29T06:59:19;5.00;;;1.75;;
59504;SDS011;45321;53.200;5.814;2024-03-29T07:01:45;5.20;;;2.20;;
59504;SDS011;45321;53.200;5.814;2024-03-29T07:04:12;2.67;;;0.80;;
59504;SDS011;45321;53.200;5.814;2024-03-29T07:06:38;4.53;;;1.90;;
59504;SDS011;45321;53.200;5.814;2024-03-29T07:09:07;3.95;;;0.98;;
59504;SDS011;45321;53.200;5.814;2024-03-29T07:11:35;4.63;;;1.08;;
59504;SDS011;45321;53.200;5.814;2024-03-29T07:14:00;2.10;;;0.68;;
59504;SDS011;45321;53.200;5.814;2024-03-29T07:16:26;3.08;;;1.50;;
59504;SDS011;45321;53.200;5.814;2024-03-29T07:18:52;2.08;;;0.50;;
59504;SDS011;45321;53.200;5.814;2024-03-29T07:21:17;4.50;;;0.70;;
59504;SDS011;45321;53.200;5.814;2024-03-29T07:23:43;10.63;;;4.38;;
59504;SDS011;45321;53.200;5.814;2024-03-29T07:26:09;3.33;;;0.70;;
59504;SDS011;45321;53.200;5.814;2024-03-29T07:28:36;3.05;;;0.50;;
59504;SDS011;45321;53.200;5.814;2024-03-29T07:31:06;3.25;;;0.68;;
59504;SDS011;45321;53.200;5.814;2024-03-29T07:33:32;1.75;;;0.75;;
59504;SDS011;45321;53.200;5.814;2024-03-29T07:35:58;4.65;;;0.57;;
59504;SDS011;45321;53.200;5.814;2024-03-29T07:38:24;1.15;;;0.40;;
59504;SDS011;45321;53.200;5.814;2024-03-29T07:40:50;1.38;;;0.50;;
59504;SDS011;45321;53.200;5.814;2024-03-29T07:43:17;3.08;;;0.60;;
59504;SDS011;45321;53.200;5.814;2024-03-29T07:45:44;1.95;;;0.52;;
59504;SDS011;45321;53.200;5.814;2024-03-29T07:48:16;1.95;;;0.52;;
59504;SDS011;45321;53.200;5.814;2024-03-29T07:50:43;2.58;;;0.60;;
59504;SDS011;45321;53.200;5.814;2024-03-29T07:53:11;1.65;;;0.70;;
59504;SDS011;45321;53.200;5.814;2024-03-29T07:55:37;1.48;;;0.68;;
59504;SDS011;45321;53.200;5.814;2024-03-29T07:58:04;1.25;;;0.40;;
59504;SDS011;45321;53.200;5.814;2024-03-29T08:00:31;2.75;;;0.60;;
59504;SDS011;45321;53.200;5.814;2024-03-29T08:02:57;2.00;;;0.60;;
59504;SDS011;45321;53.200;5.814;2024-03-29T08:05:23;1.65;;;0.57;;
59504;SDS011;45321;53.200;5.814;2024-03-29T08:07:49;3.70;;;0.82;;
59504;SDS011;45321;53.200;5.814;2024-03-29T08:10:15;2.58;;;0.70;;
59504;SDS011;45321;53.200;5.814;2024-03-29T08:12:41;2.58;;;0.75;;
59504;SDS011;45321;53.200;5.814;2024-03-29T08:15:07;1.25;;;0.50;;
59504;SDS011;45321;53.200;5.814;2024-03-29T08:17:36;4.00;;;0.73;;
59504;SDS011;45321;53.200;5.814;2024-03-29T08:20:02;2.88;;;1.10;;
59504;SDS011;45321;53.200;5.814;2024-03-29T08:22:29;1.83;;;0.50;;
59504;SDS011;45321;53.200;5.814;2024-03-29T08:24:57;2.90;;;0.50;;
59504;SDS011;45321;53.200;5.814;2024-03-29T08:27:23;1.80;;;0.50;;
59504;SDS011;45321;53.200;5.814;2024-03-29T08:29:48;1.30;;;0.57;;
59504;SDS011;45321;53.200;5.814;2024-03-29T08:32:15;2.42;;;0.50;;
59504;SDS011;45321;53.200;5.814;2024-03-29T08:34:41;0.85;;;0.60;;
59504;SDS011;45321;53.200;5.814;2024-03-29T08:37:07;2.47;;;0.80;;
59504;SDS011;45321;53.200;5.814;2024-03-29T08:39:32;4.05;;;2.80;;
59504;SDS011;45321;53.200;5.814;2024-03-29T08:41:59;0.93;;;0.50;;
59504;SDS011;45321;53.200;5.814;2024-03-29T08:44:30;3.80;;;1.00;;
59504;SDS011;45321;53.200;5.814;2024-03-29T08:46:56;1.33;;;0.95;;
59504;SDS011;45321;53.200;5.814;2024-03-29T08:49:23;3.58;;;1.00;;
59504;SDS011;45321;53.200;5.814;2024-03-29T08:51:49;3.95;;;1.88;;
59504;SDS011;45321;53.200;5.814;2024-03-29T08:54:15;4.53;;;2.10;;
59504;SDS011;45321;53.200;5.814;2024-03-29T08:56:41;3.72;;;1.70;;
59504;SDS011;45321;53.200;5.814;2024-03-29T08:59:06;1.83;;;0.70;;
59504;SDS011;45321;53.200;5.814;2024-03-29T09:01:36;2.03;;;0.70;;
59504;SDS011;45321;53.200;5.814;2024-03-29T09:04:03;3.55;;;1.30;;
59504;SDS011;45321;53.200;5.814;2024-03-29T09:06:32;3.60;;;1.63;;
59504;SDS011;45321;53.200;5.814;2024-03-29T09:08:58;2.83;;;1.70;;
59504;SDS011;45321;53.200;5.814;2024-03-29T09:11:24;1.92;;;1.60;;
59504;SDS011;45321;53.200;5.814;2024-03-29T09:13:50;2.75;;;1.77;;
59504;SDS011;45321;53.200;5.814;2024-03-29T09:16:15;1.13;;;0.40;;
59504;SDS011;45321;53.200;5.814;2024-03-29T09:18:41;2.88;;;0.50;;
59504;SDS011;45321;53.200;5.814;2024-03-29T09:21:07;2.15;;;0.47;;
59504;SDS011;45321;53.200;5.814;2024-03-29T09:23:34;1.60;;;0.38;;
59504;SDS011;45321;53.200;5.814;2024-03-29T09:26:00;0.70;;;0.50;;
59504;SDS011;45321;53.200;5.814;2024-03-29T09:28:29;0.68;;;0.40;;
59504;SDS011;45321;53.200;5.814;2024-03-29T09:30:57;1.50;;;0.50;;
59504;SDS011;45321;53.200;5.814;2024-03-29T09:33:24;1.30;;;0.30;;
59504;SDS011;45321;53.200;5.814;2024-03-29T09:35:49;0.88;;;0.40;;
59504;SDS011;45321;53.200;5.814;2024-03-29T09:38:16;1.65;;;0.45;;
59504;SDS011;45321;53.200;5.814;2024-03-29T09:40:41;1.42;;;0.30;;
59504;SDS011;45321;53.200;5.814;2024-03-29T09:43:08;0.95;;;0.50;;
59504;SDS011;45321;53.200;5.814;2024-03-29T09:45:35;0.93;;;0.45;;
59504;SDS011;45321;53.200;5.814;2024-03-29T09:48:07;2.25;;;0.60;;
59504;SDS011;45321;53.200;5.814;2024-03-29T09:50:36;0.63;;;0.35;;
59504;SDS011;45321;53.200;5.814;2024-03-29T09:53:05;1.15;;;0.40;;
59504;SDS011;45321;53.200;5.814;2024-03-29T09:55:33;1.70;;;0.40;;
59504;SDS011;45321;53.200;5.814;2024-03-29T09:58:00;1.63;;;0.70;;
59504;SDS011;45321;53.200;5.814;2024-03-29T10:00:28;1.15;;;0.40;;
59504;SDS011;45321;53.200;5.814;2024-03-29T10:02:55;2.30;;;0.85;;
59504;SDS011;45321;53.200;5.814;2024-03-29T10:05:24;1.50;;;0.93;;
59504;SDS011;45321;53.200;5.814;2024-03-29T10:07:52;1.33;;;0.60;;
59504;SDS011;45321;53.200;5.814;2024-03-29T10:10:19;3.00;;;0.80;;
59504;SDS011;45321;53.200;5.814;2024-03-29T10:12:44;1.45;;;0.98;;
59504;SDS011;45321;53.200;5.814;2024-03-29T10:15:10;2.47;;;1.00;;
59504;SDS011;45321;53.200;5.814;2024-03-29T10:17:46;2.17;;;0.60;;
59504;SDS011;45321;53.200;5.814;2024-03-29T10:20:18;1.60;;;0.55;;
59504;SDS011;45321;53.200;5.814;2024-03-29T10:22:45;1.52;;;0.40;;
59504;SDS011;45321;53.200;5.814;2024-03-29T10:25:14;1.15;;;0.52;;
59504;SDS011;45321;53.200;5.814;2024-03-29T10:27:40;1.25;;;0.60;;
59504;SDS011;45321;53.200;5.814;2024-03-29T10:30:07;0.68;;;0.38;;
59504;SDS011;45321;53.200;5.814;2024-03-29T10:32:34;1.30;;;0.60;;
59504;SDS011;45321;53.200;5.814;2024-03-29T10:35:02;1.10;;;0.52;;
59504;SDS011;45321;53.200;5.814;2024-03-29T10:37:28;1.13;;;0.60;;
59504;SDS011;45321;53.200;5.814;2024-03-29T10:39:57;2.03;;;0.60;;
59504;SDS011;45321;53.200;5.814;2024-03-29T10:42:23;1.80;;;0.65;;
59504;SDS011;45321;53.200;5.814;2024-03-29T10:44:50;0.95;;;0.43;;
59504;SDS011;45321;53.200;5.814;2024-03-29T10:47:18;2.28;;;0.43;;
59504;SDS011;45321;53.200;5.814;2024-03-29T10:49:49;1.77;;;0.70;;
59504;SDS011;45321;53.200;5.814;2024-03-29T10:52:18;0.65;;;0.45;;
59504;SDS011;45321;53.200;5.814;2024-03-29T10:54:46;1.70;;;0.63;;
59504;SDS011;45321;53.200;5.814;2024-03-29T10:57:17;1.65;;;0.43;;
59504;SDS011;45321;53.200;5.814;2024-03-29T10:59:54;0.80;;;0.50;;
59504;SDS011;45321;53.200;5.814;2024-03-29T11:02:31;1.60;;;0.40;;
59504;SDS011;45321;53.200;5.814;2024-03-29T11:05:01;2.38;;;0.57;;
59504;SDS011;45321;53.200;5.814;2024-03-29T11:07:31;0.80;;;0.55;;
59504;SDS011;45321;53.200;5.814;2024-03-29T11:10:00;1.38;;;0.50;;
59504;SDS011;45321;53.200;5.814;2024-03-29T11:12:28;1.95;;;0.65;;
59504;SDS011;45321;53.200;5.814;2024-03-29T11:15:02;1.52;;;0.57;;
59504;SDS011;45321;53.200;5.814;2024-03-29T11:17:30;0.75;;;0.40;;
59504;SDS011;45321;53.200;5.814;2024-03-29T11:19:56;1.48;;;0.50;;
59504;SDS011;45321;53.200;5.814;2024-03-29T11:22:24;1.35;;;0.57;;
59504;SDS011;45321;53.200;5.814;2024-03-29T11:24:51;2.15;;;0.50;;
59504;SDS011;45321;53.200;5.814;2024-03-29T11:27:17;1.83;;;0.40;;
59504;SDS011;45321;53.200;5.814;2024-03-29T11:29:47;2.03;;;0.50;;
59504;SDS011;45321;53.200;5.814;2024-03-29T11:32:14;1.10;;;0.40;;
59504;SDS011;45321;53.200;5.814;2024-03-29T11:34:44;1.77;;;0.60;;
59504;SDS011;45321;53.200;5.814;2024-03-29T11:37:11;1.88;;;0.40;;
59504;SDS011;45321;53.200;5.814;2024-03-29T11:39:38;1.50;;;0.40;;
59504;SDS011;45321;53.200;5.814;2024-03-29T11:42:03;1.70;;;0.50;;
59504;SDS011;45321;53.200;5.814;2024-03-29T11:44:29;1.25;;;0.50;;
59504;SDS011;45321;53.200;5.814;2024-03-29T11:46:58;0.93;;;0.50;;
59504;SDS011;45321;53.200;5.814;2024-03-29T11:49:25;1.98;;;0.60;;
59504;SDS011;45321;53.200;5.814;2024-03-29T11:51:50;0.75;;;0.38;;
59504;SDS011;45321;53.200;5.814;2024-03-29T11:54:26;0.77;;;0.30;;
59504;SDS011;45321;53.200;5.814;2024-03-29T11:56:51;0.63;;;0.35;;
59504;SDS011;45321;53.200;5.814;2024-03-29T11:59:17;1.77;;;0.90;;
59504;SDS011;45321;53.200;5.814;2024-03-29T12:01:46;1.00;;;0.43;;
59504;SDS011;45321;53.200;5.814;2024-03-29T12:04:19;1.70;;;0.68;;
59504;SDS011;45321;53.200;5.814;2024-03-29T12:06:48;1.67;;;0.70;;
59504;SDS011;45321;53.200;5.814;2024-03-29T12:09:15;0.85;;;0.45;;
59504;SDS011;45321;53.200;5.814;2024-03-29T12:11:43;1.77;;;0.60;;
59504;SDS011;45321;53.200;5.814;2024-03-29T12:14:13;1.38;;;0.47;;
59504;SDS011;45321;53.200;5.814;2024-03-29T12:16:46;0.85;;;0.40;;
59504;SDS011;45321;53.200;5.814;2024-03-29T12:19:22;1.25;;;0.50;;
59504;SDS011;45321;53.200;5.814;2024-03-29T12:21:52;2.80;;;0.82;;
59504;SDS011;45321;53.200;5.814;2024-03-29T12:24:18;2.63;;;0.68;;
59504;SDS011;45321;53.200;5.814;2024-03-29T12:26:46;1.10;;;0.50;;
59504;SDS011;45321;53.200;5.814;2024-03-29T12:29:16;2.05;;;0.60;;
59504;SDS011;45321;53.200;5.814;2024-03-29T12:31:42;1.95;;;0.50;;
59504;SDS011;45321;53.200;5.814;2024-03-29T12:34:07;1.92;;;0.57;;
59504;SDS011;45321;53.200;5.814;2024-03-29T12:36:33;1.02;;;0.35;;
59504;SDS011;45321;53.200;5.814;2024-03-29T12:38:59;3.13;;;0.47;;
59504;SDS011;45321;53.200;5.814;2024-03-29T12:41:31;1.55;;;0.50;;
59504;SDS011;45321;53.200;5.814;2024-03-29T12:43:57;2.08;;;0.60;;
59504;SDS011;45321;53.200;5.814;2024-03-29T12:46:24;1.98;;;0.60;;
59504;SDS011;45321;53.200;5.814;2024-03-29T12:49:01;0.60;;;0.30;;
59504;SDS011;45321;53.200;5.814;2024-03-29T12:51:27;2.38;;;0.40;;
59504;SDS011;45321;53.200;5.814;2024-03-29T12:54:01;1.52;;;0.52;;
59504;SDS011;45321;53.200;5.814;2024-03-29T12:56:29;3.22;;;0.80;;
59504;SDS011;45321;53.200;5.814;2024-03-29T12:58:55;1.75;;;0.57;;
59504;SDS011;45321;53.200;5.814;2024-03-29T13:01:21;2.42;;;0.45;;
59504;SDS011;45321;53.200;5.814;2024-03-29T13:03:47;2.50;;;0.70;;
59504;SDS011;45321;53.200;5.814;2024-03-29T13:06:13;1.30;;;0.52;;
59504;SDS011;45321;53.200;5.814;2024-03-29T13:08:39;1.75;;;0.80;;
59504;SDS011;45321;53.200;5.814;2024-03-29T13:11:04;1.92;;;0.45;;
59504;SDS011;45321;53.200;5.814;2024-03-29T13:13:30;1.38;;;0.70;;
59504;SDS011;45321;53.200;5.814;2024-03-29T13:15:56;1.90;;;0.70;;
59504;SDS011;45321;53.200;5.814;2024-03-29T13:18:22;1.20;;;0.70;;
59504;SDS011;45321;53.200;5.814;2024-03-29T13:20:47;2.78;;;0.60;;
59504;SDS011;45321;53.200;5.814;2024-03-29T13:23:13;1.05;;;0.50;;
59504;SDS011;45321;53.200;5.814;2024-03-29T13:25:39;2.22;;;0.50;;
59504;SDS011;45321;53.200;5.814;2024-03-29T13:28:05;1.13;;;0.35;;
59504;SDS011;45321;53.200;5.814;2024-03-29T13:30:32;1.17;;;0.40;;
59504;SDS011;45321;53.200;5.814;2024-03-29T13:32:58;0.98;;;0.50;;
59504;SDS011;45321;53.200;5.814;2024-03-29T13:35:24;2.42;;;0.77;;
59504;SDS011;45321;53.200;5.814;2024-03-29T13:37:51;1.52;;;0.65;;
59504;SDS011;45321;53.200;5.814;2024-03-29T13:40:21;1.27;;;0.70;;
59504;SDS011;45321;53.200;5.814;2024-03-29T13:42:49;1.33;;;0.90;;
59504;SDS011;45321;53.200;5.814;2024-03-29T13:45:15;1.30;;;0.82;;
59504;SDS011;45321;53.200;5.814;2024-03-29T13:47:41;1.30;;;0.80;;
59504;SDS011;45321;53.200;5.814;2024-03-29T13:50:08;3.13;;;1.00;;
59504;SDS011;45321;53.200;5.814;2024-03-29T13:52:35;2.65;;;1.42;;
59504;SDS011;45321;53.200;5.814;2024-03-29T13:55:02;1.88;;;1.10;;
59504;SDS011;45321;53.200;5.814;2024-03-29T13:57:28;2.80;;;1.60;;
59504;SDS011;45321;53.200;5.814;2024-03-29T13:59:55;1.77;;;1.50;;
59504;SDS011;45321;53.200;5.814;2024-03-29T14:02:21;2.25;;;1.50;;
59504;SDS011;45321;53.200;5.814;2024-03-29T14:04:49;2.22;;;1.42;;
59504;SDS011;45321;53.200;5.814;2024-03-29T14:07:15;2.30;;;1.50;;
59504;SDS011;45321;53.200;5.814;2024-03-29T14:09:43;1.92;;;1.73;;
59504;SDS011;45321;53.200;5.814;2024-03-29T14:12:10;2.65;;;1.48;;
59504;SDS011;45321;53.200;5.814;2024-03-29T14:14:35;3.30;;;1.50;;
59504;SDS011;45321;53.200;5.814;2024-03-29T14:17:02;2.33;;;1.40;;
59504;SDS011;45321;53.200;5.814;2024-03-29T14:19:34;2.55;;;1.38;;
59504;SDS011;45321;53.200;5.814;2024-03-29T14:22:03;3.75;;;1.52;;
59504;SDS011;45321;53.200;5.814;2024-03-29T14:24:30;2.78;;;1.33;;
59504;SDS011;45321;53.200;5.814;2024-03-29T14:27:00;1.52;;;1.27;;
59504;SDS011;45321;53.200;5.814;2024-03-29T14:29:26;2.13;;;1.55;;
59504;SDS011;45321;53.200;5.814;2024-03-29T14:31:52;2.70;;;1.30;;
59504;SDS011;45321;53.200;5.814;2024-03-29T14:34:20;1.50;;;1.02;;
59504;SDS011;45321;53.200;5.814;2024-03-29T14:36:47;2.95;;;1.10;;
59504;SDS011;45321;53.200;5.814;2024-03-29T14:39:12;3.63;;;1.35;;
59504;SDS011;45321;53.200;5.814;2024-03-29T14:41:39;1.52;;;1.10;;
59504;SDS011;45321;53.200;5.814;2024-03-29T14:44:05;2.50;;;1.05;;
59504;SDS011;45321;53.200;5.814;2024-03-29T14:46:32;3.47;;;0.95;;